sensor_id;sensor_type;location;lat;lon;timestamp;temperature;humidity
7512;DHT22;9999;48.780;9.146;2022-11-18T00:01:45;7.80;99.90
7512;DHT22;9999;48.780;9.146;2022-11-18T00:04:12;7.80;99.90
7512;DHT22;9999;48.780;9.146;2022-11-18T00:06:39;7.80;99.90
7512;DHT22;9999;48.780;9.146;2022-11-18T00:09:07;7.70;99.90
7512;DHT22;9999;48.780;9.146;2022-11-18T00:11:34;7.70;99.90
7512;DHT22;9999;48.780;9.146;2022-11-18T00:14:20;7.70;99.90
7512;DHT22;9999;48.780;9.146;2022-11-18T00:16:51;7.70;99.90
7512;DHT22;9999;48.780;9.146;2022-11-18T00:19:19;7.80;99.90
7512;DHT22;9999;48.780;9.146;2022-11-18T00:21:46;7.80;99.90
7512;DHT22;9999;48.780;9.146;2022-11-18T00:24:14;7.90;99.90
7512;DHT22;9999;48.780;9.146;2022-11-18T00:26:41;7.80;99.90
7512;DHT22;9999;48.780;9.146;2022-11-18T00:29:09;7.90;99.90
7512;DHT22;9999;48.780;9.146;2022-11-18T00:31:36;7.80;99.90
7512;DHT22;9999;48.780;9.146;2022-11-18T00:34:04;7.80;99.90
7512;DHT22;9999;48.780;9.146;2022-11-18T00:36:31;7.90;99.90
7512;DHT22;9999;48.780;9.146;2022-11-18T00:38:58;7.80;99.90
7512;DHT22;9999;48.780;9.146;2022-11-18T00:41:26;7.90;99.90
7512;DHT22;9999;48.780;9.146;2022-11-18T00:44:13;7.90;99.90
7512;DHT22;9999;48.780;9.146;2022-11-18T00:46:39;7.80;99.90
7512;DHT22;9999;48.780;9.146;2022-11-18T00:49:06;7.80;99.90
7512;DHT22;9999;48.780;9.146;2022-11-18T00:51:33;7.70;99.90
7512;DHT22;9999;48.780;9.146;2022-11-18T00:54:00;7.80;99.90
7512;DHT22;9999;48.780;9.146;2022-11-18T00:56:29;7.90;99.90
7512;DHT22;9999;48.780;9.146;2022-11-18T00:58:55;7.90;99.90
7512;DHT22;9999;48.780;9.146;2022-11-18T01:01:23;7.90;99.90
7512;DHT22;9999;48.780;9.146;2022-11-18T01:03:50;7.90;99.90
7512;DHT22;9999;48.780;9.146;2022-11-18T01:06:17;8.00;99.90
7512;DHT22;9999;48.780;9.146;2022-11-18T01:08:43;8.00;99.90
7512;DHT22;9999;48.780;9.146;2022-11-18T01:11:10;7.90;99.90
7512;DHT22;9999;48.780;9.146;2022-11-18T01:13:56;7.90;99.90
7512;DHT22;9999;48.780;9.146;2022-11-18T01:16:25;7.90;99.90
7512;DHT22;9999;48.780;9.146;2022-11-18T01:18:53;7.80;99.90
7512;DHT22;9999;48.780;9.146;2022-11-18T01:21:20;7.90;99.90
7512;DHT22;9999;48.780;9.146;2022-11-18T01:23:47;7.90;99.90
7512;DHT22;9999;48.780;9.146;2022-11-18T01:26:16;8.00;99.90
7512;DHT22;9999;48.780;9.146;2022-11-18T01:28:43;8.10;99.90
7512;DHT22;9999;48.780;9.146;2022-11-18T01:31:15;8.10;99.90
7512;DHT22;9999;48.780;9.146;2022-11-18T01:33:45;8.00;99.90
7512;DHT22;9999;48.780;9.146;2022-11-18T01:36:17;8.10;99.90
7512;DHT22;9999;48.780;9.146;2022-11-18T01:38:44;8.00;99.90
7512;DHT22;9999;48.780;9.146;2022-11-18T01:41:11;8.00;99.90
7512;DHT22;9999;48.780;9.146;2022-11-18T01:43:53;8.00;99.90
7512;DHT22;9999;48.780;9.146;2022-11-18T01:46:23;8.00;99.90
7512;DHT22;9999;48.780;9.146;2022-11-18T01:48:53;8.00;99.90
7512;DHT22;9999;48.780;9.146;2022-11-18T01:51:24;8.00;99.90
7512;DHT22;9999;48.780;9.146;2022-11-18T01:53:55;7.90;99.90
7512;DHT22;9999;48.780;9.146;2022-11-18T01:56:28;7.80;99.90
7512;DHT22;9999;48.780;9.146;2022-11-18T01:58:59;7.80;99.90
7512;DHT22;9999;48.780;9.146;2022-11-18T02:01:29;7.80;99.90
7512;DHT22;9999;48.780;9.146;2022-11-18T02:03:56;7.80;99.90
7512;DHT22;9999;48.780;9.146;2022-11-18T02:06:23;7.80;99.90
7512;DHT22;9999;48.780;9.146;2022-11-18T02:08:50;7.80;99.90
7512;DHT22;9999;48.780;9.146;2022-11-18T02:11:17;7.80;99.90
7512;DHT22;9999;48.780;9.146;2022-11-18T02:14:05;7.80;99.90
7512;DHT22;9999;48.780;9.146;2022-11-18T02:16:45;7.70;99.90
7512;DHT22;9999;48.780;9.146;2022-11-18T02:19:31;7.70;99.90
7512;DHT22;9999;48.780;9.146;2022-11-18T02:22:14;7.80;99.90
7512;DHT22;9999;48.780;9.146;2022-11-18T02:24:54;7.70;99.90
7512;DHT22;9999;48.780;9.146;2022-11-18T02:30:22;7.70;99.90
7512;DHT22;9999;48.780;9.146;2022-11-18T02:32:53;7.70;99.90
7512;DHT22;9999;48.780;9.146;2022-11-18T02:35:27;7.80;99.90
7512;DHT22;9999;48.780;9.146;2022-11-18T02:37:58;7.80;99.90
7512;DHT22;9999;48.780;9.146;2022-11-18T02:40:29;7.80;99.90
7512;DHT22;9999;48.780;9.146;2022-11-18T02:43:00;7.80;99.90
7512;DHT22;9999;48.780;9.146;2022-11-18T02:45:30;7.80;99.90
7512;DHT22;9999;48.780;9.146;2022-11-18T02:48:01;7.80;99.90
7512;DHT22;9999;48.780;9.146;2022-11-18T02:50:29;7.80;99.90
7512;DHT22;9999;48.780;9.146;2022-11-18T02:52:59;7.70;99.90
7512;DHT22;9999;48.780;9.146;2022-11-18T02:55:28;7.70;99.90
7512;DHT22;9999;48.780;9.146;2022-11-18T02:57:56;7.70;99.90
7512;DHT22;9999;48.780;9.146;2022-11-18T03:00:23;7.70;99.90
7512;DHT22;9999;48.780;9.146;2022-11-18T03:02:52;7.70;99.90
7512;DHT22;9999;48.780;9.146;2022-11-18T03:05:24;7.70;99.90
7512;DHT22;9999;48.780;9.146;2022-11-18T03:07:54;7.70;99.90
7512;DHT22;9999;48.780;9.146;2022-11-18T03:10:23;7.80;99.90
7512;DHT22;9999;48.780;9.146;2022-11-18T03:13:00;7.80;99.90
7512;DHT22;9999;48.780;9.146;2022-11-18T03:15:35;7.80;99.90
7512;DHT22;9999;48.780;9.146;2022-11-18T03:18:14;7.90;99.90
7512;DHT22;9999;48.780;9.146;2022-11-18T03:20:47;8.00;99.90
7512;DHT22;9999;48.780;9.146;2022-11-18T03:23:21;7.90;99.90
7512;DHT22;9999;48.780;9.146;2022-11-18T03:25:54;7.90;99.90
7512;DHT22;9999;48.780;9.146;2022-11-18T03:28:26;7.90;99.90
7512;DHT22;9999;48.780;9.146;2022-11-18T03:30:56;7.90;99.90
7512;DHT22;9999;48.780;9.146;2022-11-18T03:33:30;7.90;99.90
7512;DHT22;9999;48.780;9.146;2022-11-18T03:36:01;7.90;99.90
7512;DHT22;9999;48.780;9.146;2022-11-18T03:38:34;7.90;99.90
7512;DHT22;9999;48.780;9.146;2022-11-18T03:41:06;7.90;99.90
7512;DHT22;9999;48.780;9.146;2022-11-18T03:43:38;8.00;99.90
7512;DHT22;9999;48.780;9.146;2022-11-18T03:46:07;8.00;99.90
7512;DHT22;9999;48.780;9.146;2022-11-18T03:48:42;8.00;99.90
7512;DHT22;9999;48.780;9.146;2022-11-18T03:51:12;8.10;99.90
7512;DHT22;9999;48.780;9.146;2022-11-18T03:53:43;8.00;99.90
7512;DHT22;9999;48.780;9.146;2022-11-18T03:56:15;8.00;99.90
7512;DHT22;9999;48.780;9.146;2022-11-18T03:58:48;8.00;99.90
7512;DHT22;9999;48.780;9.146;2022-11-18T04:01:21;8.00;99.90
7512;DHT22;9999;48.780;9.146;2022-11-18T04:03:51;8.10;99.90
7512;DHT22;9999;48.780;9.146;2022-11-18T04:06:23;8.10;99.90
7512;DHT22;9999;48.780;9.146;2022-11-18T04:08:55;8.00;99.90
7512;DHT22;9999;48.780;9.146;2022-11-18T04:11:30;8.00;99.90
7512;DHT22;9999;48.780;9.146;2022-11-18T04:14:17;8.00;99.90
7512;DHT22;9999;48.780;9.146;2022-11-18T04:16:49;8.00;99.90
7512;DHT22;9999;48.780;9.146;2022-11-18T04:19:18;8.10;99.90
7512;DHT22;9999;48.780;9.146;2022-11-18T04:21:46;8.00;99.90
7512;DHT22;9999;48.780;9.146;2022-11-18T04:24:13;8.00;99.90
7512;DHT22;9999;48.780;9.146;2022-11-18T04:26:40;8.00;99.90
7512;DHT22;9999;48.780;9.146;2022-11-18T04:29:06;8.00;99.90
7512;DHT22;9999;48.780;9.146;2022-11-18T04:31:33;7.90;99.90
7512;DHT22;9999;48.780;9.146;2022-11-18T04:34:00;7.90;99.90
7512;DHT22;9999;48.780;9.146;2022-11-18T04:36:28;7.90;99.90
7512;DHT22;9999;48.780;9.146;2022-11-18T04:38:55;7.90;99.90
7512;DHT22;9999;48.780;9.146;2022-11-18T04:41:22;7.80;99.90
7512;DHT22;9999;48.780;9.146;2022-11-18T04:44:09;7.70;99.90
7512;DHT22;9999;48.780;9.146;2022-11-18T04:46:38;7.70;99.90
7512;DHT22;9999;48.780;9.146;2022-11-18T04:49:05;7.60;99.90
7512;DHT22;9999;48.780;9.146;2022-11-18T04:51:33;7.60;99.90
7512;DHT22;9999;48.780;9.146;2022-11-18T04:54:01;7.50;99.90
7512;DHT22;9999;48.780;9.146;2022-11-18T04:56:28;7.50;99.90
7512;DHT22;9999;48.780;9.146;2022-11-18T04:58:57;7.50;99.90
7512;DHT22;9999;48.780;9.146;2022-11-18T05:01:24;7.30;99.90
7512;DHT22;9999;48.780;9.146;2022-11-18T05:03:51;7.40;99.90
7512;DHT22;9999;48.780;9.146;2022-11-18T05:06:17;7.50;99.90
7512;DHT22;9999;48.780;9.146;2022-11-18T05:08:46;7.40;99.90
7512;DHT22;9999;48.780;9.146;2022-11-18T05:11:12;7.50;99.90
7512;DHT22;9999;48.780;9.146;2022-11-18T05:13:57;7.50;99.90
7512;DHT22;9999;48.780;9.146;2022-11-18T05:16:24;7.60;99.90
7512;DHT22;9999;48.780;9.146;2022-11-18T05:18:51;7.60;99.90
7512;DHT22;9999;48.780;9.146;2022-11-18T05:21:18;7.50;99.90
7512;DHT22;9999;48.780;9.146;2022-11-18T05:23:46;7.60;99.90
7512;DHT22;9999;48.780;9.146;2022-11-18T05:26:13;7.50;99.90
7512;DHT22;9999;48.780;9.146;2022-11-18T05:28:39;7.40;99.90
7512;DHT22;9999;48.780;9.146;2022-11-18T05:31:07;7.40;99.90
7512;DHT22;9999;48.780;9.146;2022-11-18T05:33:34;7.40;99.90
7512;DHT22;9999;48.780;9.146;2022-11-18T05:36:02;7.30;99.90
7512;DHT22;9999;48.780;9.146;2022-11-18T05:38:30;7.40;99.90
7512;DHT22;9999;48.780;9.146;2022-11-18T05:40:59;7.20;99.90
7512;DHT22;9999;48.780;9.146;2022-11-18T05:43:26;7.20;99.90
7512;DHT22;9999;48.780;9.146;2022-11-18T05:45:52;7.30;99.90
7512;DHT22;9999;48.780;9.146;2022-11-18T05:48:19;7.30;99.90
7512;DHT22;9999;48.780;9.146;2022-11-18T05:50:47;7.30;99.90
7512;DHT22;9999;48.780;9.146;2022-11-18T05:53:14;7.40;99.90
7512;DHT22;9999;48.780;9.146;2022-11-18T05:55:47;7.50;99.90
7512;DHT22;9999;48.780;9.146;2022-11-18T05:58:17;7.40;99.90
7512;DHT22;9999;48.780;9.146;2022-11-18T06:00:46;7.50;99.90
7512;DHT22;9999;48.780;9.146;2022-11-18T06:03:19;7.50;99.90
7512;DHT22;9999;48.780;9.146;2022-11-18T06:05:47;7.30;99.90
7512;DHT22;9999;48.780;9.146;2022-11-18T06:08:17;7.30;99.90
7512;DHT22;9999;48.780;9.146;2022-11-18T06:10:45;7.40;99.90
7512;DHT22;9999;48.780;9.146;2022-11-18T06:13:16;7.30;99.90
7512;DHT22;9999;48.780;9.146;2022-11-18T06:15:45;7.30;99.90
7512;DHT22;9999;48.780;9.146;2022-11-18T06:18:18;7.30;99.90
7512;DHT22;9999;48.780;9.146;2022-11-18T06:20:48;7.30;99.90
7512;DHT22;9999;48.780;9.146;2022-11-18T06:23:16;7.30;99.90
7512;DHT22;9999;48.780;9.146;2022-11-18T06:25:43;7.40;99.90
7512;DHT22;9999;48.780;9.146;2022-11-18T06:28:11;7.40;99.90
7512;DHT22;9999;48.780;9.146;2022-11-18T06:30:39;7.30;99.90
7512;DHT22;9999;48.780;9.146;2022-11-18T06:33:07;7.30;99.90
7512;DHT22;9999;48.780;9.146;2022-11-18T06:35:34;7.30;99.90
7512;DHT22;9999;48.780;9.146;2022-11-18T06:38:01;7.40;99.90
7512;DHT22;9999;48.780;9.146;2022-11-18T06:40:27;7.30;99.90
7512;DHT22;9999;48.780;9.146;2022-11-18T06:42:54;7.30;99.90
7512;DHT22;9999;48.780;9.146;2022-11-18T06:45:35;7.30;99.90
7512;DHT22;9999;48.780;9.146;2022-11-18T06:48:02;7.30;99.90
7512;DHT22;9999;48.780;9.146;2022-11-18T06:50:30;7.30;99.90
7512;DHT22;9999;48.780;9.146;2022-11-18T06:52:59;7.30;99.90
7512;DHT22;9999;48.780;9.146;2022-11-18T06:55:26;7.20;99.90
7512;DHT22;9999;48.780;9.146;2022-11-18T06:57:55;7.20;99.90
7512;DHT22;9999;48.780;9.146;2022-11-18T07:00:22;7.20;99.90
7512;DHT22;9999;48.780;9.146;2022-11-18T07:02:48;7.20;99.90
7512;DHT22;9999;48.780;9.146;2022-11-18T07:05:15;7.20;99.90
7512;DHT22;9999;48.780;9.146;2022-11-18T07:07:43;7.10;99.90
7512;DHT22;9999;48.780;9.146;2022-11-18T07:10:10;7.10;99.90
7512;DHT22;9999;48.780;9.146;2022-11-18T07:12:37;7.20;99.90
7512;DHT22;9999;48.780;9.146;2022-11-18T07:15:04;7.20;99.90
7512;DHT22;9999;48.780;9.146;2022-11-18T07:17:31;7.30;99.90
7512;DHT22;9999;48.780;9.146;2022-11-18T07:19:58;7.30;99.90
7512;DHT22;9999;48.780;9.146;2022-11-18T07:22:25;7.20;99.90
7512;DHT22;9999;48.780;9.146;2022-11-18T07:24:53;7.20;99.90
7512;DHT22;9999;48.780;9.146;2022-11-18T07:27:20;7.20;99.90
7512;DHT22;9999;48.780;9.146;2022-11-18T07:29:47;7.20;99.90
7512;DHT22;9999;48.780;9.146;2022-11-18T07:32:14;7.10;99.90
7512;DHT22;9999;48.780;9.146;2022-11-18T07:34:40;7.10;99.90
7512;DHT22;9999;48.780;9.146;2022-11-18T07:37:07;7.10;99.90
7512;DHT22;9999;48.780;9.146;2022-11-18T07:39:34;7.00;99.90
7512;DHT22;9999;48.780;9.146;2022-11-18T07:42:02;7.10;99.90
7512;DHT22;9999;48.780;9.146;2022-11-18T07:44:29;7.00;99.90
7512;DHT22;9999;48.780;9.146;2022-11-18T07:46:57;7.20;99.90
7512;DHT22;9999;48.780;9.146;2022-11-18T07:49:23;7.20;99.90
7512;DHT22;9999;48.780;9.146;2022-11-18T07:51:50;7.20;99.90
7512;DHT22;9999;48.780;9.146;2022-11-18T07:54:18;7.10;99.90
7512;DHT22;9999;48.780;9.146;2022-11-18T07:56:45;7.10;99.90
7512;DHT22;9999;48.780;9.146;2022-11-18T07:59:13;7.20;99.90
7512;DHT22;9999;48.780;9.146;2022-11-18T08:01:39;7.20;99.90
7512;DHT22;9999;48.780;9.146;2022-11-18T08:04:08;7.30;99.90
7512;DHT22;9999;48.780;9.146;2022-11-18T08:06:36;7.30;99.90
7512;DHT22;9999;48.780;9.146;2022-11-18T08:09:04;7.30;99.90
7512;DHT22;9999;48.780;9.146;2022-11-18T08:11:31;7.30;99.90
7512;DHT22;9999;48.780;9.146;2022-11-18T08:13:58;7.40;99.90
7512;DHT22;9999;48.780;9.146;2022-11-18T08:16:27;7.40;99.90
7512;DHT22;9999;48.780;9.146;2022-11-18T08:18:54;7.40;99.90
7512;DHT22;9999;48.780;9.146;2022-11-18T08:21:21;7.50;99.90
7512;DHT22;9999;48.780;9.146;2022-11-18T08:23:49;7.40;99.90
7512;DHT22;9999;48.780;9.146;2022-11-18T08:26:16;7.50;99.90
7512;DHT22;9999;48.780;9.146;2022-11-18T08:28:44;7.40;99.90
7512;DHT22;9999;48.780;9.146;2022-11-18T08:31:12;7.50;99.90
7512;DHT22;9999;48.780;9.146;2022-11-18T08:33:40;7.40;99.90
7512;DHT22;9999;48.780;9.146;2022-11-18T08:36:08;7.50;99.90
7512;DHT22;9999;48.780;9.146;2022-11-18T08:38:36;7.50;99.90
7512;DHT22;9999;48.780;9.146;2022-11-18T08:41:03;7.50;99.90
7512;DHT22;9999;48.780;9.146;2022-11-18T08:43:32;7.50;99.90
7512;DHT22;9999;48.780;9.146;2022-11-18T08:45:59;7.50;99.90
7512;DHT22;9999;48.780;9.146;2022-11-18T08:48:28;7.60;99.90
7512;DHT22;9999;48.780;9.146;2022-11-18T08:50:56;7.60;99.90
7512;DHT22;9999;48.780;9.146;2022-11-18T08:53:23;7.70;99.90
7512;DHT22;9999;48.780;9.146;2022-11-18T08:55:54;7.70;99.90
7512;DHT22;9999;48.780;9.146;2022-11-18T08:58:21;7.60;99.90
7512;DHT22;9999;48.780;9.146;2022-11-18T09:00:48;7.60;99.90
7512;DHT22;9999;48.780;9.146;2022-11-18T09:03:15;7.70;99.90
7512;DHT22;9999;48.780;9.146;2022-11-18T09:05:42;7.70;99.90
7512;DHT22;9999;48.780;9.146;2022-11-18T09:08:10;7.70;99.90
7512;DHT22;9999;48.780;9.146;2022-11-18T09:10:37;7.70;99.90
7512;DHT22;9999;48.780;9.146;2022-11-18T09:13:03;7.80;99.90
7512;DHT22;9999;48.780;9.146;2022-11-18T09:15:30;7.80;99.90
7512;DHT22;9999;48.780;9.146;2022-11-18T09:17:58;7.90;99.90
7512;DHT22;9999;48.780;9.146;2022-11-18T09:20:24;7.90;99.90
7512;DHT22;9999;48.780;9.146;2022-11-18T09:22:51;7.90;99.90
7512;DHT22;9999;48.780;9.146;2022-11-18T09:25:19;7.80;99.90
7512;DHT22;9999;48.780;9.146;2022-11-18T09:27:46;7.80;99.90
7512;DHT22;9999;48.780;9.146;2022-11-18T09:30:13;7.90;99.90
7512;DHT22;9999;48.780;9.146;2022-11-18T09:32:40;7.90;99.90
7512;DHT22;9999;48.780;9.146;2022-11-18T09:35:07;7.90;99.90
7512;DHT22;9999;48.780;9.146;2022-11-18T09:37:33;8.00;99.90
7512;DHT22;9999;48.780;9.146;2022-11-18T09:40:00;8.00;99.90
7512;DHT22;9999;48.780;9.146;2022-11-18T09:42:38;8.00;99.90
7512;DHT22;9999;48.780;9.146;2022-11-18T09:45:15;8.00;99.90
7512;DHT22;9999;48.780;9.146;2022-11-18T09:47:44;8.00;99.90
7512;DHT22;9999;48.780;9.146;2022-11-18T09:50:14;8.10;99.90
7512;DHT22;9999;48.780;9.146;2022-11-18T09:52:45;8.10;99.90
7512;DHT22;9999;48.780;9.146;2022-11-18T09:55:16;8.20;99.90
7512;DHT22;9999;48.780;9.146;2022-11-18T09:57:48;8.20;99.90
7512;DHT22;9999;48.780;9.146;2022-11-18T10:00:17;8.20;99.90
7512;DHT22;9999;48.780;9.146;2022-11-18T10:02:55;8.20;99.90
7512;DHT22;9999;48.780;9.146;2022-11-18T10:05:24;8.30;99.90
7512;DHT22;9999;48.780;9.146;2022-11-18T10:08:08;8.30;99.90
7512;DHT22;9999;48.780;9.146;2022-11-18T10:10:47;8.30;99.90
7512;DHT22;9999;48.780;9.146;2022-11-18T10:13:25;8.30;99.90
7512;DHT22;9999;48.780;9.146;2022-11-18T10:16:02;8.40;99.90
7512;DHT22;9999;48.780;9.146;2022-11-18T10:18:38;8.50;99.90
7512;DHT22;9999;48.780;9.146;2022-11-18T10:21:14;8.40;99.90
7512;DHT22;9999;48.780;9.146;2022-11-18T10:23:49;8.50;99.90
7512;DHT22;9999;48.780;9.146;2022-11-18T10:26:31;8.50;99.90
7512;DHT22;9999;48.780;9.146;2022-11-18T10:28:59;8.50;99.90
7512;DHT22;9999;48.780;9.146;2022-11-18T10:31:26;8.50;99.90
7512;DHT22;9999;48.780;9.146;2022-11-18T10:33:57;8.50;99.90
7512;DHT22;9999;48.780;9.146;2022-11-18T10:36:26;8.50;99.90
7512;DHT22;9999;48.780;9.146;2022-11-18T10:39:11;8.70;99.90
7512;DHT22;9999;48.780;9.146;2022-11-18T10:41:42;8.70;99.90
7512;DHT22;9999;48.780;9.146;2022-11-18T10:47:22;8.80;99.90
7512;DHT22;9999;48.780;9.146;2022-11-18T10:49:50;8.90;99.90
7512;DHT22;9999;48.780;9.146;2022-11-18T10:52:17;8.90;99.90
7512;DHT22;9999;48.780;9.146;2022-11-18T10:54:44;8.90;99.90
7512;DHT22;9999;48.780;9.146;2022-11-18T10:57:18;8.90;99.90
7512;DHT22;9999;48.780;9.146;2022-11-18T10:59:48;8.90;99.90
7512;DHT22;9999;48.780;9.146;2022-11-18T11:02:18;8.90;99.90
7512;DHT22;9999;48.780;9.146;2022-11-18T11:04:48;8.90;99.90
7512;DHT22;9999;48.780;9.146;2022-11-18T11:07:24;8.80;99.90
7512;DHT22;9999;48.780;9.146;2022-11-18T11:10:13;8.80;99.90
7512;DHT22;9999;48.780;9.146;2022-11-18T11:12:42;8.80;99.90
7512;DHT22;9999;48.780;9.146;2022-11-18T11:15:15;8.90;99.90
7512;DHT22;9999;48.780;9.146;2022-11-18T11:17:49;8.90;99.90
7512;DHT22;9999;48.780;9.146;2022-11-18T11:20:38;8.90;99.90
7512;DHT22;9999;48.780;9.146;2022-11-18T11:23:08;8.90;99.90
7512;DHT22;9999;48.780;9.146;2022-11-18T11:25:40;8.80;99.90
7512;DHT22;9999;48.780;9.146;2022-11-18T11:28:13;8.80;99.90
7512;DHT22;9999;48.780;9.146;2022-11-18T11:30:46;8.80;99.90
7512;DHT22;9999;48.780;9.146;2022-11-18T11:33:22;8.80;99.90
7512;DHT22;9999;48.780;9.146;2022-11-18T11:36:02;8.80;99.90
7512;DHT22;9999;48.780;9.146;2022-11-18T11:38:41;8.90;99.90
7512;DHT22;9999;48.780;9.146;2022-11-18T11:41:16;9.00;99.90
7512;DHT22;9999;48.780;9.146;2022-11-18T11:43:59;9.30;99.90
7512;DHT22;9999;48.780;9.146;2022-11-18T11:46:38;9.30;99.90
7512;DHT22;9999;48.780;9.146;2022-11-18T11:49:40;9.30;99.90
7512;DHT22;9999;48.780;9.146;2022-11-18T11:52:14;9.30;99.90
7512;DHT22;9999;48.780;9.146;2022-11-18T11:54:46;9.30;99.90
7512;DHT22;9999;48.780;9.146;2022-11-18T11:57:28;9.20;99.90
7512;DHT22;9999;48.780;9.146;2022-11-18T12:00:02;9.30;99.90
7512;DHT22;9999;48.780;9.146;2022-11-18T12:02:48;9.30;99.90
7512;DHT22;9999;48.780;9.146;2022-11-18T12:05:22;9.20;99.90
7512;DHT22;9999;48.780;9.146;2022-11-18T12:07:55;9.20;99.90
7512;DHT22;9999;48.780;9.146;2022-11-18T12:10:27;9.20;99.90
7512;DHT22;9999;48.780;9.146;2022-11-18T12:13:06;9.10;99.90
7512;DHT22;9999;48.780;9.146;2022-11-18T12:15:49;9.00;99.90
7512;DHT22;9999;48.780;9.146;2022-11-18T12:18:21;8.90;99.90
7512;DHT22;9999;48.780;9.146;2022-11-18T12:20:50;8.90;99.90
7512;DHT22;9999;48.780;9.146;2022-11-18T12:23:20;8.80;99.90
7512;DHT22;9999;48.780;9.146;2022-11-18T12:25:54;8.80;99.90
7512;DHT22;9999;48.780;9.146;2022-11-18T12:28:27;8.70;99.90
7512;DHT22;9999;48.780;9.146;2022-11-18T12:31:32;8.60;99.90
7512;DHT22;9999;48.780;9.146;2022-11-18T12:34:02;8.40;99.90
7512;DHT22;9999;48.780;9.146;2022-11-18T12:36:31;8.40;99.90
7512;DHT22;9999;48.780;9.146;2022-11-18T12:42:08;8.40;99.90
7512;DHT22;9999;48.780;9.146;2022-11-18T12:48:31;8.50;99.90
7512;DHT22;9999;48.780;9.146;2022-11-18T12:50:59;8.50;99.90
7512;DHT22;9999;48.780;9.146;2022-11-18T12:53:34;8.50;99.90
7512;DHT22;9999;48.780;9.146;2022-11-18T12:56:21;8.40;99.90
7512;DHT22;9999;48.780;9.146;2022-11-18T12:58:50;8.40;99.90
7512;DHT22;9999;48.780;9.146;2022-11-18T13:01:21;8.50;99.90
7512;DHT22;9999;48.780;9.146;2022-11-18T13:03:49;8.60;99.90
7512;DHT22;9999;48.780;9.146;2022-11-18T13:06:23;8.70;99.90
7512;DHT22;9999;48.780;9.146;2022-11-18T13:08:55;8.80;99.90
7512;DHT22;9999;48.780;9.146;2022-11-18T13:11:27;8.90;99.90
7512;DHT22;9999;48.780;9.146;2022-11-18T13:14:15;8.90;99.90
7512;DHT22;9999;48.780;9.146;2022-11-18T13:17:00;9.10;99.90
7512;DHT22;9999;48.780;9.146;2022-11-18T13:19:59;9.10;99.90
7512;DHT22;9999;48.780;9.146;2022-11-18T13:22:26;9.20;99.90
7512;DHT22;9999;48.780;9.146;2022-11-18T13:25:23;9.40;99.90
7512;DHT22;9999;48.780;9.146;2022-11-18T13:27:57;9.40;99.90
7512;DHT22;9999;48.780;9.146;2022-11-18T13:30:26;9.40;99.90
7512;DHT22;9999;48.780;9.146;2022-11-18T13:32:57;9.30;99.90
7512;DHT22;9999;48.780;9.146;2022-11-18T13:35:25;9.20;99.90
7512;DHT22;9999;48.780;9.146;2022-11-18T13:37:55;9.20;99.90
7512;DHT22;9999;48.780;9.146;2022-11-18T13:40:25;9.20;99.90
7512;DHT22;9999;48.780;9.146;2022-11-18T13:42:54;9.20;99.90
7512;DHT22;9999;48.780;9.146;2022-11-18T13:45:25;9.20;99.90
7512;DHT22;9999;48.780;9.146;2022-11-18T13:47:56;9.20;99.90
7512;DHT22;9999;48.780;9.146;2022-11-18T13:50:27;9.10;99.90
7512;DHT22;9999;48.780;9.146;2022-11-18T13:53:04;9.10;99.90
7512;DHT22;9999;48.780;9.146;2022-11-18T13:55:35;9.00;99.90
7512;DHT22;9999;48.780;9.146;2022-11-18T13:58:10;9.00;99.90
7512;DHT22;9999;48.780;9.146;2022-11-18T14:00:39;9.00;99.90
7512;DHT22;9999;48.780;9.146;2022-11-18T14:03:18;8.90;99.90
7512;DHT22;9999;48.780;9.146;2022-11-18T14:05:52;8.90;99.90
7512;DHT22;9999;48.780;9.146;2022-11-18T14:08:24;8.80;99.90
7512;DHT22;9999;48.780;9.146;2022-11-18T14:10:51;8.80;99.90
7512;DHT22;9999;48.780;9.146;2022-11-18T14:13:23;8.80;99.90
7512;DHT22;9999;48.780;9.146;2022-11-18T14:15:51;8.80;99.90
7512;DHT22;9999;48.780;9.146;2022-11-18T14:18:22;8.70;99.90
7512;DHT22;9999;48.780;9.146;2022-11-18T14:20:52;8.70;99.90
7512;DHT22;9999;48.780;9.146;2022-11-18T14:23:28;8.60;99.90
7512;DHT22;9999;48.780;9.146;2022-11-18T14:25:56;8.70;99.90
7512;DHT22;9999;48.780;9.146;2022-11-18T14:28:27;8.70;99.90
7512;DHT22;9999;48.780;9.146;2022-11-18T14:31:03;8.70;99.90
7512;DHT22;9999;48.780;9.146;2022-11-18T14:33:33;8.70;99.90
7512;DHT22;9999;48.780;9.146;2022-11-18T14:36:01;8.70;99.90
7512;DHT22;9999;48.780;9.146;2022-11-18T14:38:39;8.70;99.90
7512;DHT22;9999;48.780;9.146;2022-11-18T14:41:09;8.70;99.90
7512;DHT22;9999;48.780;9.146;2022-11-18T14:43:38;8.70;99.90
7512;DHT22;9999;48.780;9.146;2022-11-18T14:46:11;8.60;99.90
7512;DHT22;9999;48.780;9.146;2022-11-18T14:48:39;8.60;99.90
7512;DHT22;9999;48.780;9.146;2022-11-18T14:51:08;8.50;99.90
7512;DHT22;9999;48.780;9.146;2022-11-18T14:53:37;8.50;99.90
7512;DHT22;9999;48.780;9.146;2022-11-18T14:56:11;8.40;99.90
7512;DHT22;9999;48.780;9.146;2022-11-18T14:58:40;8.40;99.90
7512;DHT22;9999;48.780;9.146;2022-11-18T15:01:09;8.40;99.90
7512;DHT22;9999;48.780;9.146;2022-11-18T15:03:37;8.40;99.90
7512;DHT22;9999;48.780;9.146;2022-11-18T15:06:09;8.30;99.90
7512;DHT22;9999;48.780;9.146;2022-11-18T15:08:36;8.30;99.90
7512;DHT22;9999;48.780;9.146;2022-11-18T15:11:03;8.20;99.90
7512;DHT22;9999;48.780;9.146;2022-11-18T15:13:30;8.10;99.90
7512;DHT22;9999;48.780;9.146;2022-11-18T15:15:58;8.10;99.90
7512;DHT22;9999;48.780;9.146;2022-11-18T15:18:25;8.10;99.90
7512;DHT22;9999;48.780;9.146;2022-11-18T15:20:51;8.10;99.90
7512;DHT22;9999;48.780;9.146;2022-11-18T15:23:18;8.10;99.90
7512;DHT22;9999;48.780;9.146;2022-11-18T15:25:45;8.10;99.90
7512;DHT22;9999;48.780;9.146;2022-11-18T15:28:12;8.00;99.90
7512;DHT22;9999;48.780;9.146;2022-11-18T15:30:38;8.00;99.90
7512;DHT22;9999;48.780;9.146;2022-11-18T15:33:07;8.00;99.90
7512;DHT22;9999;48.780;9.146;2022-11-18T15:35:33;7.90;99.90
7512;DHT22;9999;48.780;9.146;2022-11-18T15:38:00;7.90;99.90
7512;DHT22;9999;48.780;9.146;2022-11-18T15:40:27;7.90;99.90
7512;DHT22;9999;48.780;9.146;2022-11-18T15:42:54;7.90;99.90
7512;DHT22;9999;48.780;9.146;2022-11-18T15:45:21;7.90;99.90
7512;DHT22;9999;48.780;9.146;2022-11-18T15:47:50;8.00;99.90
7512;DHT22;9999;48.780;9.146;2022-11-18T15:50:18;8.00;99.90
7512;DHT22;9999;48.780;9.146;2022-11-18T15:52:45;8.10;99.90
7512;DHT22;9999;48.780;9.146;2022-11-18T15:55:12;8.00;99.90
7512;DHT22;9999;48.780;9.146;2022-11-18T15:57:39;8.00;99.90
7512;DHT22;9999;48.780;9.146;2022-11-18T16:00:07;8.10;99.90
7512;DHT22;9999;48.780;9.146;2022-11-18T16:02:37;8.20;99.90
7512;DHT22;9999;48.780;9.146;2022-11-18T16:05:05;8.20;99.90
7512;DHT22;9999;48.780;9.146;2022-11-18T16:07:33;8.20;99.90
7512;DHT22;9999;48.780;9.146;2022-11-18T16:10:00;8.20;99.90
7512;DHT22;9999;48.780;9.146;2022-11-18T16:12:45;8.10;99.90
7512;DHT22;9999;48.780;9.146;2022-11-18T16:15:15;8.10;99.90
7512;DHT22;9999;48.780;9.146;2022-11-18T16:18:01;8.00;99.90
7512;DHT22;9999;48.780;9.146;2022-11-18T16:20:28;7.90;99.90
7512;DHT22;9999;48.780;9.146;2022-11-18T16:22:56;7.80;99.90
7512;DHT22;9999;48.780;9.146;2022-11-18T16:25:23;7.80;99.90
7512;DHT22;9999;48.780;9.146;2022-11-18T16:27:51;7.80;99.90
7512;DHT22;9999;48.780;9.146;2022-11-18T16:30:18;7.70;99.90
7512;DHT22;9999;48.780;9.146;2022-11-18T16:33:03;7.80;99.90
7512;DHT22;9999;48.780;9.146;2022-11-18T16:35:30;7.70;99.90
7512;DHT22;9999;48.780;9.146;2022-11-18T16:37:58;7.70;99.90
7512;DHT22;9999;48.780;9.146;2022-11-18T16:40:25;7.70;99.90
7512;DHT22;9999;48.780;9.146;2022-11-18T16:42:52;7.70;99.90
7512;DHT22;9999;48.780;9.146;2022-11-18T16:45:18;7.70;99.90
7512;DHT22;9999;48.780;9.146;2022-11-18T16:47:45;7.80;99.90
7512;DHT22;9999;48.780;9.146;2022-11-18T16:50:12;7.90;99.90
7512;DHT22;9999;48.780;9.146;2022-11-18T16:52:39;8.00;99.90